العين, الإمارات العربية المتحدة

12:14 AM GST on مارس 04, 2015 (GMT +0400)
Al Ain International | Change Station
CLOSE
Current Station
Airport
Location: Al Ain,
Elevation: 869 ft
Nearby Weather Stations

Elev 869 ft 24.26 °N, 55.61 °E | Updated 14 minutes ago

Clear
صافية
66 °F
Feels Like 66 °F
N
5
ريح متغير ريح from شمال

هذا اليوم
High -- | Low -- °F
--% Chance of Precip.
Yesterday
High -- | Low -- °F
Precip. -- في
6:37 AM 6:21 PM
الأحدب الأول, 97% visible
الضغط 29.98 في
وضوح الرؤية -9999.0 أميال
سحابات
نقطة الندى 46 °F
الرطوبة 49%
Rainfall 0.00 في
عمق الثلج Not available.
الأشعة فوق البنفسجية Not available.
Pollen Not available.
جودة الهواء Not available.
Flu Activity Not available.
METAR OMAL 032000Z 35004KT CAVOK 19/08 Q1015 A2997 NOSIG

More Conditions Fewer Conditions

الضغط 29.98 في
وضوح الرؤية -9999.0 أميال
سحابات
نقطة الندى 46 °F
الرطوبة 49%
Rainfall 0.00 في
عمق الثلج Not available.
الأشعة فوق البنفسجية Not available.
Pollen Not available.
جودة الهواء Not available.
Flu Activity Not available.
METAR OMAL 032000Z 35004KT CAVOK 19/08 Q1015 A2997 NOSIG

More Conditions Fewer Conditions

10-Day Weather Forecast

Almanac

علم الفلك

Mar. 04, 2015 Rise Set
Actual Time
Civil Twilight
Nautical Twilight
Astronomical Twilight
قمر
Length Of Visible Light
طول الیوم
Tomorrow will be .
, % of the Moon is Illuminated

Today's Extremes

Country Highs Country Lows

Community

WunderPhotos

Upload Photos

1,802,225 photos uploaded!

WunderBlogs® & News

Nearby

جودة الهواء

  جودة الهواء AQ Index Pollutant
Not available.

عمق الثلج

Station Depth Elevation

Earthquake Activity

City Distance Mag. Time & Date
Minimum magnitude displayed is 2.5.

Coastal Water Temperatures

مكان درجات الحرارة

Nearby Weather Stations